sensor_id;sensor_type;location;lat;lon;timestamp;temperature;humidity
53314;DHT22;39202;51.468;7.146;2023-03-23T00:02:04;23.20;51.30
53314;DHT22;39202;51.468;7.146;2023-03-23T00:07:06;23.10;44.00
53314;DHT22;39202;51.468;7.146;2023-03-23T00:12:08;23.10;43.90
53314;DHT22;39202;51.468;7.146;2023-03-23T00:17:13;23.10;43.90
53314;DHT22;39202;51.468;7.146;2023-03-23T00:22:17;23.10;43.90
53314;DHT22;39202;51.468;7.146;2023-03-23T00:27:22;23.10;44.00
53314;DHT22;39202;51.468;7.146;2023-03-23T00:32:26;23.20;44.00
53314;DHT22;39202;51.468;7.146;2023-03-23T00:37:29;23.10;44.00
53314;DHT22;39202;51.468;7.146;2023-03-23T00:42:30;23.10;44.00
53314;DHT22;39202;51.468;7.146;2023-03-23T00:47:38;23.10;44.00
53314;DHT22;39202;51.468;7.146;2023-03-23T00:52:40;23.00;44.00
53314;DHT22;39202;51.468;7.146;2023-03-23T00:57:42;23.10;44.00
53314;DHT22;39202;51.468;7.146;2023-03-23T01:02:46;23.00;43.90
53314;DHT22;39202;51.468;7.146;2023-03-23T01:07:48;23.00;44.00
53314;DHT22;39202;51.468;7.146;2023-03-23T01:12:49;23.00;44.00
53314;DHT22;39202;51.468;7.146;2023-03-23T01:17:52;23.00;44.00
53314;DHT22;39202;51.468;7.146;2023-03-23T01:22:54;23.10;47.50
53314;DHT22;39202;51.468;7.146;2023-03-23T01:28:00;23.00;53.20
53314;DHT22;39202;51.468;7.146;2023-03-23T01:33:03;23.10;57.40
53314;DHT22;39202;51.468;7.146;2023-03-23T01:38:05;23.00;73.40
53314;DHT22;39202;51.468;7.146;2023-03-23T01:43:10;23.00;57.50
53314;DHT22;39202;51.468;7.146;2023-03-23T01:48:17;23.00;59.10
53314;DHT22;39202;51.468;7.146;2023-03-23T01:53:22;23.10;75.20
53314;DHT22;39202;51.468;7.146;2023-03-23T01:58:26;23.00;57.60
53314;DHT22;39202;51.468;7.146;2023-03-23T02:03:30;23.00;74.00
53314;DHT22;39202;51.468;7.146;2023-03-23T02:08:33;23.00;76.60
53314;DHT22;39202;51.468;7.146;2023-03-23T02:13:35;23.00;59.80
53314;DHT22;39202;51.468;7.146;2023-03-23T02:18:51;22.40;57.60
53314;DHT22;39202;51.468;7.146;2023-03-23T02:24:48;23.00;56.90
53314;DHT22;39202;51.468;7.146;2023-03-23T02:30:11;23.00;53.80
53314;DHT22;39202;51.468;7.146;2023-03-23T02:35:19;23.00;55.60
53314;DHT22;39202;51.468;7.146;2023-03-23T02:40:25;23.00;59.40
53314;DHT22;39202;51.468;7.146;2023-03-23T02:45:30;22.90;46.20
53314;DHT22;39202;51.468;7.146;2023-03-23T02:50:36;22.90;44.00
53314;DHT22;39202;51.468;7.146;2023-03-23T02:55:39;22.90;44.00
53314;DHT22;39202;51.468;7.146;2023-03-23T03:00:43;22.90;43.90
53314;DHT22;39202;51.468;7.146;2023-03-23T03:05:55;22.80;44.00
53314;DHT22;39202;51.468;7.146;2023-03-23T03:11:04;22.90;44.00
53314;DHT22;39202;51.468;7.146;2023-03-23T03:16:17;22.90;44.00
53314;DHT22;39202;51.468;7.146;2023-03-23T03:21:23;22.90;44.00
53314;DHT22;39202;51.468;7.146;2023-03-23T03:26:28;22.80;44.00
53314;DHT22;39202;51.468;7.146;2023-03-23T03:31:35;22.80;43.90
53314;DHT22;39202;51.468;7.146;2023-03-23T03:36:40;22.80;44.00
53314;DHT22;39202;51.468;7.146;2023-03-23T03:41:43;22.80;44.00
53314;DHT22;39202;51.468;7.146;2023-03-23T03:46:45;22.80;44.00
53314;DHT22;39202;51.468;7.146;2023-03-23T03:51:48;22.80;44.00
53314;DHT22;39202;51.468;7.146;2023-03-23T03:56:50;22.80;44.00
53314;DHT22;39202;51.468;7.146;2023-03-23T04:01:58;22.70;44.00
53314;DHT22;39202;51.468;7.146;2023-03-23T04:07:01;22.80;44.00
53314;DHT22;39202;51.468;7.146;2023-03-23T04:12:03;22.70;44.00
53314;DHT22;39202;51.468;7.146;2023-03-23T04:17:05;22.80;44.00
53314;DHT22;39202;51.468;7.146;2023-03-23T04:22:10;22.70;44.00
53314;DHT22;39202;51.468;7.146;2023-03-23T04:27:12;22.70;44.00
53314;DHT22;39202;51.468;7.146;2023-03-23T04:32:15;22.70;44.00
53314;DHT22;39202;51.468;7.146;2023-03-23T04:37:19;22.70;44.00
53314;DHT22;39202;51.468;7.146;2023-03-23T04:42:27;22.70;44.00
53314;DHT22;39202;51.468;7.146;2023-03-23T04:47:32;22.70;44.10
53314;DHT22;39202;51.468;7.146;2023-03-23T04:52:36;22.70;44.10
53314;DHT22;39202;51.468;7.146;2023-03-23T04:57:40;22.70;44.10
53314;DHT22;39202;51.468;7.146;2023-03-23T05:02:43;22.70;44.10
53314;DHT22;39202;51.468;7.146;2023-03-23T05:07:46;22.70;44.00
53314;DHT22;39202;51.468;7.146;2023-03-23T05:12:48;22.70;44.10
53314;DHT22;39202;51.468;7.146;2023-03-23T05:17:51;22.70;44.50
53314;DHT22;39202;51.468;7.146;2023-03-23T05:22:55;22.80;45.70
53314;DHT22;39202;51.468;7.146;2023-03-23T05:27:58;22.80;46.00
53314;DHT22;39202;51.468;7.146;2023-03-23T05:33:01;22.80;45.60
53314;DHT22;39202;51.468;7.146;2023-03-23T05:38:04;22.70;45.10
53314;DHT22;39202;51.468;7.146;2023-03-23T05:43:06;22.70;45.70
53314;DHT22;39202;51.468;7.146;2023-03-23T05:48:08;22.70;45.60
53314;DHT22;39202;51.468;7.146;2023-03-23T05:53:11;22.70;47.00
53314;DHT22;39202;51.468;7.146;2023-03-23T05:58:13;22.60;49.30
53314;DHT22;39202;51.468;7.146;2023-03-23T06:03:15;22.60;50.10
53314;DHT22;39202;51.468;7.146;2023-03-23T06:08:18;22.60;45.90
53314;DHT22;39202;51.468;7.146;2023-03-23T06:13:20;22.60;44.20
53314;DHT22;39202;51.468;7.146;2023-03-23T06:18:22;22.60;44.00
53314;DHT22;39202;51.468;7.146;2023-03-23T06:23:25;22.60;44.00
53314;DHT22;39202;51.468;7.146;2023-03-23T06:28:27;22.60;44.00
53314;DHT22;39202;51.468;7.146;2023-03-23T06:33:29;22.60;44.00
53314;DHT22;39202;51.468;7.146;2023-03-23T06:38:32;22.50;44.00
53314;DHT22;39202;51.468;7.146;2023-03-23T06:43:34;22.50;44.00
53314;DHT22;39202;51.468;7.146;2023-03-23T06:48:40;22.50;44.00
53314;DHT22;39202;51.468;7.146;2023-03-23T06:53:44;22.60;44.00
53314;DHT22;39202;51.468;7.146;2023-03-23T06:58:46;22.50;44.00
53314;DHT22;39202;51.468;7.146;2023-03-23T07:03:48;22.50;44.00
53314;DHT22;39202;51.468;7.146;2023-03-23T07:08:51;22.50;44.00
53314;DHT22;39202;51.468;7.146;2023-03-23T07:13:53;22.50;44.10
53314;DHT22;39202;51.468;7.146;2023-03-23T07:18:55;22.50;44.20
53314;DHT22;39202;51.468;7.146;2023-03-23T07:23:58;22.60;44.20
53314;DHT22;39202;51.468;7.146;2023-03-23T07:29:00;22.70;44.50
53314;DHT22;39202;51.468;7.146;2023-03-23T07:34:02;22.70;44.60
53314;DHT22;39202;51.468;7.146;2023-03-23T07:39:05;22.80;44.70
53314;DHT22;39202;51.468;7.146;2023-03-23T07:44:07;22.90;44.80
53314;DHT22;39202;51.468;7.146;2023-03-23T07:49:09;23.00;44.80
53314;DHT22;39202;51.468;7.146;2023-03-23T07:54:13;23.10;44.80
53314;DHT22;39202;51.468;7.146;2023-03-23T07:59:16;23.10;44.80
53314;DHT22;39202;51.468;7.146;2023-03-23T08:04:18;23.20;44.80
53314;DHT22;39202;51.468;7.146;2023-03-23T08:09:21;23.30;44.80
53314;DHT22;39202;51.468;7.146;2023-03-23T08:14:23;23.40;44.80
53314;DHT22;39202;51.468;7.146;2023-03-23T08:19:28;23.40;44.80
53314;DHT22;39202;51.468;7.146;2023-03-23T08:24:32;23.50;44.80
53314;DHT22;39202;51.468;7.146;2023-03-23T08:29:35;23.60;44.90
53314;DHT22;39202;51.468;7.146;2023-03-23T08:34:36;23.70;44.90
53314;DHT22;39202;51.468;7.146;2023-03-23T08:39:40;23.70;44.90
53314;DHT22;39202;51.468;7.146;2023-03-23T08:44:43;23.80;44.90
53314;DHT22;39202;51.468;7.146;2023-03-23T08:49:45;23.90;44.90
53314;DHT22;39202;51.468;7.146;2023-03-23T08:54:48;23.90;44.80
53314;DHT22;39202;51.468;7.146;2023-03-23T08:59:50;24.00;44.90
53314;DHT22;39202;51.468;7.146;2023-03-23T09:04:54;24.10;44.80
53314;DHT22;39202;51.468;7.146;2023-03-23T09:09:57;24.10;44.70
53314;DHT22;39202;51.468;7.146;2023-03-23T09:14:59;24.20;44.80
53314;DHT22;39202;51.468;7.146;2023-03-23T09:20:04;24.20;44.60
53314;DHT22;39202;51.468;7.146;2023-03-23T09:25:14;24.20;44.60
53314;DHT22;39202;51.468;7.146;2023-03-23T09:30:16;24.20;44.40
53314;DHT22;39202;51.468;7.146;2023-03-23T09:35:19;24.30;44.40
53314;DHT22;39202;51.468;7.146;2023-03-23T09:40:26;24.30;44.40
53314;DHT22;39202;51.468;7.146;2023-03-23T09:45:34;24.20;44.20
53314;DHT22;39202;51.468;7.146;2023-03-23T09:50:40;24.20;44.20
53314;DHT22;39202;51.468;7.146;2023-03-23T09:55:45;24.20;44.20
53314;DHT22;39202;51.468;7.146;2023-03-23T10:00:53;24.20;44.20
53314;DHT22;39202;51.468;7.146;2023-03-23T10:05:56;24.20;44.20
53314;DHT22;39202;51.468;7.146;2023-03-23T10:11:02;24.20;44.10
53314;DHT22;39202;51.468;7.146;2023-03-23T10:16:06;24.00;44.10
53314;DHT22;39202;51.468;7.146;2023-03-23T10:21:13;24.10;44.10
53314;DHT22;39202;51.468;7.146;2023-03-23T10:26:33;24.10;44.10
53314;DHT22;39202;51.468;7.146;2023-03-23T10:31:39;24.10;44.10
53314;DHT22;39202;51.468;7.146;2023-03-23T10:36:51;24.10;44.10
53314;DHT22;39202;51.468;7.146;2023-03-23T10:41:59;24.10;44.10
53314;DHT22;39202;51.468;7.146;2023-03-23T10:47:08;24.10;44.10
53314;DHT22;39202;51.468;7.146;2023-03-23T10:52:23;24.10;44.10
53314;DHT22;39202;51.468;7.146;2023-03-23T10:57:29;24.10;44.30
53314;DHT22;39202;51.468;7.146;2023-03-23T11:02:32;24.10;44.30
53314;DHT22;39202;51.468;7.146;2023-03-23T11:07:35;24.10;44.30
53314;DHT22;39202;51.468;7.146;2023-03-23T11:12:38;24.10;44.30
53314;DHT22;39202;51.468;7.146;2023-03-23T11:17:40;24.10;44.30
53314;DHT22;39202;51.468;7.146;2023-03-23T11:22:42;24.10;44.10
53314;DHT22;39202;51.468;7.146;2023-03-23T11:27:46;24.10;44.10
53314;DHT22;39202;51.468;7.146;2023-03-23T11:32:48;24.10;44.00
53314;DHT22;39202;51.468;7.146;2023-03-23T11:37:52;24.10;44.00
53314;DHT22;39202;51.468;7.146;2023-03-23T11:43:00;24.00;44.00
53314;DHT22;39202;51.468;7.146;2023-03-23T11:48:11;24.00;44.00
53314;DHT22;39202;51.468;7.146;2023-03-23T11:53:23;24.00;44.00
53314;DHT22;39202;51.468;7.146;2023-03-23T11:58:28;24.00;43.90
53314;DHT22;39202;51.468;7.146;2023-03-23T12:09:12;23.90;44.00
53314;DHT22;39202;51.468;7.146;2023-03-23T12:14:23;24.00;44.20
53314;DHT22;39202;51.468;7.146;2023-03-23T12:19:33;24.00;44.30
53314;DHT22;39202;51.468;7.146;2023-03-23T12:24:50;24.00;44.40
53314;DHT22;39202;51.468;7.146;2023-03-23T12:35:36;24.10;44.50
53314;DHT22;39202;51.468;7.146;2023-03-23T12:40:48;24.10;44.50
53314;DHT22;39202;51.468;7.146;2023-03-23T12:51:51;24.20;44.60
53314;DHT22;39202;51.468;7.146;2023-03-23T12:56:56;24.20;44.60
53314;DHT22;39202;51.468;7.146;2023-03-23T13:02:09;24.20;44.60
53314;DHT22;39202;51.468;7.146;2023-03-23T13:07:18;24.20;44.50
53314;DHT22;39202;51.468;7.146;2023-03-23T13:12:21;24.30;44.40
53314;DHT22;39202;51.468;7.146;2023-03-23T13:17:33;24.30;44.40
53314;DHT22;39202;51.468;7.146;2023-03-23T13:22:41;24.40;71.90
53314;DHT22;39202;51.468;7.146;2023-03-23T13:27:56;24.40;44.40
53314;DHT22;39202;51.468;7.146;2023-03-23T13:33:03;24.50;44.40
53314;DHT22;39202;51.468;7.146;2023-03-23T13:38:18;24.40;44.30
53314;DHT22;39202;51.468;7.146;2023-03-23T13:43:29;24.30;44.30
53314;DHT22;39202;51.468;7.146;2023-03-23T13:48:41;24.20;44.30
53314;DHT22;39202;51.468;7.146;2023-03-23T13:53:46;24.20;44.30
53314;DHT22;39202;51.468;7.146;2023-03-23T13:58:50;24.10;44.30
53314;DHT22;39202;51.468;7.146;2023-03-23T14:03:54;24.10;44.60
53314;DHT22;39202;51.468;7.146;2023-03-23T14:09:04;23.70;44.30
53314;DHT22;39202;51.468;7.146;2023-03-23T14:14:14;24.00;44.70
53314;DHT22;39202;51.468;7.146;2023-03-23T14:19:21;23.90;44.50
53314;DHT22;39202;51.468;7.146;2023-03-23T14:24:26;24.00;58.00
53314;DHT22;39202;51.468;7.146;2023-03-23T14:29:28;23.90;44.80
53314;DHT22;39202;51.468;7.146;2023-03-23T14:34:32;23.90;44.90
53314;DHT22;39202;51.468;7.146;2023-03-23T14:39:36;23.80;45.10
53314;DHT22;39202;51.468;7.146;2023-03-23T14:44:41;23.80;45.30
53314;DHT22;39202;51.468;7.146;2023-03-23T14:49:44;23.80;45.50
53314;DHT22;39202;51.468;7.146;2023-03-23T14:54:47;23.80;45.50
53314;DHT22;39202;51.468;7.146;2023-03-23T14:59:49;23.80;45.60
53314;DHT22;39202;51.468;7.146;2023-03-23T15:04:54;23.90;45.70
53314;DHT22;39202;51.468;7.146;2023-03-23T15:09:58;24.00;45.70
53314;DHT22;39202;51.468;7.146;2023-03-23T15:15:02;24.10;45.60
53314;DHT22;39202;51.468;7.146;2023-03-23T15:20:09;24.10;45.60
53314;DHT22;39202;51.468;7.146;2023-03-23T15:25:20;24.20;45.70
53314;DHT22;39202;51.468;7.146;2023-03-23T15:30:33;24.20;46.90
53314;DHT22;39202;51.468;7.146;2023-03-23T15:35:39;24.30;46.20
53314;DHT22;39202;51.468;7.146;2023-03-23T15:40:43;24.40;46.70
53314;DHT22;39202;51.468;7.146;2023-03-23T15:45:54;24.40;46.00
53314;DHT22;39202;51.468;7.146;2023-03-23T15:50:56;24.40;45.20
53314;DHT22;39202;51.468;7.146;2023-03-23T15:56:02;24.40;45.00
53314;DHT22;39202;51.468;7.146;2023-03-23T16:01:05;24.40;45.00
53314;DHT22;39202;51.468;7.146;2023-03-23T16:06:10;24.30;45.00
53314;DHT22;39202;51.468;7.146;2023-03-23T16:11:16;24.40;45.20
53314;DHT22;39202;51.468;7.146;2023-03-23T16:16:20;24.30;45.10
53314;DHT22;39202;51.468;7.146;2023-03-23T16:21:23;24.30;45.10
53314;DHT22;39202;51.468;7.146;2023-03-23T16:26:26;24.30;45.90
53314;DHT22;39202;51.468;7.146;2023-03-23T16:31:28;24.30;45.30
53314;DHT22;39202;51.468;7.146;2023-03-23T16:36:29;24.30;45.30
53314;DHT22;39202;51.468;7.146;2023-03-23T16:41:32;24.40;45.30
53314;DHT22;39202;51.468;7.146;2023-03-23T16:46:34;24.40;48.30
53314;DHT22;39202;51.468;7.146;2023-03-23T16:51:36;24.40;45.40
53314;DHT22;39202;51.468;7.146;2023-03-23T16:56:39;24.40;45.80
53314;DHT22;39202;51.468;7.146;2023-03-23T17:01:46;24.40;45.40
53314;DHT22;39202;51.468;7.146;2023-03-23T17:06:47;24.40;45.40
53314;DHT22;39202;51.468;7.146;2023-03-23T17:11:52;24.40;45.40
53314;DHT22;39202;51.468;7.146;2023-03-23T17:16:54;24.40;45.60
53314;DHT22;39202;51.468;7.146;2023-03-23T17:21:56;24.50;45.70
53314;DHT22;39202;51.468;7.146;2023-03-23T17:26:59;24.40;45.40
53314;DHT22;39202;51.468;7.146;2023-03-23T17:32:01;24.50;52.90
53314;DHT22;39202;51.468;7.146;2023-03-23T17:37:03;24.40;50.30
53314;DHT22;39202;51.468;7.146;2023-03-23T17:42:06;24.60;48.40
53314;DHT22;39202;51.468;7.146;2023-03-23T17:47:09;24.40;47.80
53314;DHT22;39202;51.468;7.146;2023-03-23T17:52:11;24.50;48.20
53314;DHT22;39202;51.468;7.146;2023-03-23T17:57:14;24.40;46.70
53314;DHT22;39202;51.468;7.146;2023-03-23T18:02:16;24.50;46.90
53314;DHT22;39202;51.468;7.146;2023-03-23T18:07:19;24.40;46.00
53314;DHT22;39202;51.468;7.146;2023-03-23T18:12:24;24.40;47.20
53314;DHT22;39202;51.468;7.146;2023-03-23T18:17:26;24.40;46.60
53314;DHT22;39202;51.468;7.146;2023-03-23T18:22:27;24.40;46.50
53314;DHT22;39202;51.468;7.146;2023-03-23T18:27:31;24.30;46.00
53314;DHT22;39202;51.468;7.146;2023-03-23T18:32:34;24.30;45.70
53314;DHT22;39202;51.468;7.146;2023-03-23T18:37:36;24.50;46.60
53314;DHT22;39202;51.468;7.146;2023-03-23T18:42:41;24.20;45.90
53314;DHT22;39202;51.468;7.146;2023-03-23T18:47:44;24.40;45.40
53314;DHT22;39202;51.468;7.146;2023-03-23T18:52:46;24.20;45.20
53314;DHT22;39202;51.468;7.146;2023-03-23T18:57:49;24.20;45.10
53314;DHT22;39202;51.468;7.146;2023-03-23T19:02:51;24.20;45.10
53314;DHT22;39202;51.468;7.146;2023-03-23T19:07:53;24.30;46.00
53314;DHT22;39202;51.468;7.146;2023-03-23T19:12:56;24.20;45.10
53314;DHT22;39202;51.468;7.146;2023-03-23T19:17:57;24.10;45.00
53314;DHT22;39202;51.468;7.146;2023-03-23T19:23:00;24.10;45.00
53314;DHT22;39202;51.468;7.146;2023-03-23T19:28:03;24.10;45.00
53314;DHT22;39202;51.468;7.146;2023-03-23T19:33:04;24.00;44.90
53314;DHT22;39202;51.468;7.146;2023-03-23T19:38:07;24.00;45.00
53314;DHT22;39202;51.468;7.146;2023-03-23T19:43:10;24.00;44.90
53314;DHT22;39202;51.468;7.146;2023-03-23T19:48:11;24.00;45.00
53314;DHT22;39202;51.468;7.146;2023-03-23T19:53:13;24.00;45.00
53314;DHT22;39202;51.468;7.146;2023-03-23T19:58:16;23.90;44.90
53314;DHT22;39202;51.468;7.146;2023-03-23T20:03:19;23.90;44.90
53314;DHT22;39202;51.468;7.146;2023-03-23T20:08:20;24.00;45.00
53314;DHT22;39202;51.468;7.146;2023-03-23T20:13:23;24.00;45.00
53314;DHT22;39202;51.468;7.146;2023-03-23T20:18:25;23.90;44.90
53314;DHT22;39202;51.468;7.146;2023-03-23T20:23:28;23.90;44.90
53314;DHT22;39202;51.468;7.146;2023-03-23T20:28:32;23.80;44.90
53314;DHT22;39202;51.468;7.146;2023-03-23T20:33:35;23.80;45.50
53314;DHT22;39202;51.468;7.146;2023-03-23T20:38:38;23.80;45.00
53314;DHT22;39202;51.468;7.146;2023-03-23T20:43:43;23.80;44.90
53314;DHT22;39202;51.468;7.146;2023-03-23T20:48:45;23.80;44.90
53314;DHT22;39202;51.468;7.146;2023-03-23T20:53:48;23.80;44.90
53314;DHT22;39202;51.468;7.146;2023-03-23T20:58:51;23.70;44.80
53314;DHT22;39202;51.468;7.146;2023-03-23T21:03:54;23.70;44.80
53314;DHT22;39202;51.468;7.146;2023-03-23T21:08:57;23.80;44.90
53314;DHT22;39202;51.468;7.146;2023-03-23T21:14:00;23.70;44.80
53314;DHT22;39202;51.468;7.146;2023-03-23T21:19:03;23.70;44.80
53314;DHT22;39202;51.468;7.146;2023-03-23T21:24:05;23.60;44.80
53314;DHT22;39202;51.468;7.146;2023-03-23T21:29:09;23.60;45.60
53314;DHT22;39202;51.468;7.146;2023-03-23T21:34:11;23.60;44.80
53314;DHT22;39202;51.468;7.146;2023-03-23T21:39:13;23.70;45.50
53314;DHT22;39202;51.468;7.146;2023-03-23T21:44:16;23.60;44.80
53314;DHT22;39202;51.468;7.146;2023-03-23T21:49:18;23.60;44.80
53314;DHT22;39202;51.468;7.146;2023-03-23T21:54:20;23.50;44.80
53314;DHT22;39202;51.468;7.146;2023-03-23T21:59:23;23.50;44.80
53314;DHT22;39202;51.468;7.146;2023-03-23T22:04:25;23.50;44.80
53314;DHT22;39202;51.468;7.146;2023-03-23T22:09:28;23.50;44.80
53314;DHT22;39202;51.468;7.146;2023-03-23T22:14:31;23.50;44.80
53314;DHT22;39202;51.468;7.146;2023-03-23T22:19:33;23.50;44.80
53314;DHT22;39202;51.468;7.146;2023-03-23T22:24:35;23.50;44.80
53314;DHT22;39202;51.468;7.146;2023-03-23T22:29:38;23.60;44.80
53314;DHT22;39202;51.468;7.146;2023-03-23T22:34:40;23.40;44.80
53314;DHT22;39202;51.468;7.146;2023-03-23T22:39:42;23.40;44.70
53314;DHT22;39202;51.468;7.146;2023-03-23T22:44:45;23.50;44.80
53314;DHT22;39202;51.468;7.146;2023-03-23T22:49:46;23.40;44.80
53314;DHT22;39202;51.468;7.146;2023-03-23T22:54:48;23.40;44.80
53314;DHT22;39202;51.468;7.146;2023-03-23T22:59:51;23.40;47.60
53314;DHT22;39202;51.468;7.146;2023-03-23T23:04:53;23.40;45.10
53314;DHT22;39202;51.468;7.146;2023-03-23T23:09:56;23.40;44.80
53314;DHT22;39202;51.468;7.146;2023-03-23T23:15:00;23.30;44.80
53314;DHT22;39202;51.468;7.146;2023-03-23T23:20:02;23.40;44.90
53314;DHT22;39202;51.468;7.146;2023-03-23T23:25:06;23.40;44.80
53314;DHT22;39202;51.468;7.146;2023-03-23T23:30:11;23.30;44.80
53314;DHT22;39202;51.468;7.146;2023-03-23T23:35:13;23.30;44.70
53314;DHT22;39202;51.468;7.146;2023-03-23T23:40:16;23.30;44.80
53314;DHT22;39202;51.468;7.146;2023-03-23T23:45:19;23.30;44.80
53314;DHT22;39202;51.468;7.146;2023-03-23T23:50:21;23.30;44.80
53314;DHT22;39202;51.468;7.146;2023-03-23T23:55:24;23.20;44.80
